ADDS METAR Data INFO
IDs: Format: Raw Decoded Include TAF

Data at: 0458 UTC 16 Aug 2018

KJDD 160455Z AUTO 17006KT 10SM CLR 29/22 A2996 RMK AO2
KJDD 160435Z AUTO 16005KT 10SM CLR 29/22 A2996 RMK AO2
KJDD 160415Z AUTO 14005KT 10SM CLR 28/22 A2995 RMK AO2
KJDD 160355Z AUTO 14005KT 10SM CLR 28/22 A2995 RMK AO2
KJDD 160335Z AUTO 15004KT 10SM CLR 28/22 A2995 RMK AO2
KJDD 160315Z AUTO 14004KT 10SM CLR 27/22 A2994 RMK AO2
KJDD 160255Z AUTO 11006KT 10SM CLR 28/22 A2994 RMK AO2
KJDD 160235Z AUTO 14003KT 10SM CLR 28/22 A2993 RMK AO2
KJDD 160215Z AUTO 15003KT 10SM CLR 29/21 A2992 RMK AO2
KJDD 160155Z AUTO 16003KT 10SM CLR 29/21 A2991 RMK AO2
KJDD 160135Z AUTO 15003KT 10SM CLR 29/22 A2991 RMK AO2
KJDD 160115Z AUTO 15003KT 10SM CLR 30/21 A2991 RMK AO2
KJDD 160055Z AUTO 15003KT 10SM CLR 32/21 A2991 RMK AO2
KJDD 160035Z AUTO 16004KT 10SM CLR 32/22 A2990 RMK AO2
KJDD 160015Z AUTO 16003KT 10SM SCT060 33/22 A2991 RMK AO2
KJDD 152355Z AUTO 15004KT 10SM SCT060 34/21 A2991 RMK AO2
KJDD 152335Z AUTO 21008KT 140V240 10SM CLR 34/21 A2991 RMK AO2
KJDD 152315Z AUTO 22008KT 10SM SCT055 34/20 A2991 RMK AO2
KJDD 152255Z AUTO 15007KT 120V210 10SM SCT055 34/21 A2992 RMK AO2
KJDD 152235Z AUTO 17007KT 120V220 10SM BKN055 BKN065 34/21 A2992 RMK AO2
KJDD 152215Z AUTO 20008G14KT 150V230 10SM CLR 35/21 A2993 RMK AO2
KJDD 152155Z AUTO 22009KT 10SM SCT055 SCT065 34/21 A2993 RMK AO2
KJDD 152135Z AUTO 22007KT 120V250 10SM BKN055 BKN065 35/21 A2994 RMK AO2
KJDD 152115Z AUTO 21012KT 160V230 10SM SCT060 35/21 A2994 RMK AO2
KJDD 152055Z AUTO 18009KT 110V200 10SM SCT050 34/21 A2995 RMK AO2
KJDD 152035Z AUTO 20007G14KT 130V240 10SM SCT055 34/21 A2995 RMK AO2
KJDD 152015Z AUTO 25010KT 250V340 10SM SCT049 34/21 A2996 RMK AO2
KJDD 151955Z AUTO 18008KT 140V230 10SM SCT049 34/21 A2997 RMK AO2
KJDD 151935Z AUTO 22010G15KT 10SM SCT049 33/21 A2997 RMK AO2
KJDD 151915Z AUTO 23008KT 170V270 10SM SCT049 33/22 A2998 RMK AO2
KJDD 151855Z AUTO 21006KT 10SM SCT045 33/22 A2998 RMK AO2
KJDD 151835Z AUTO 19005G14KT 10SM BKN045 33/22 A2999 RMK AO2
KJDD 151815Z AUTO 18008G17KT 10SM SCT043 33/22 A2999 RMK AO2
KJDD 151755Z AUTO 24008G16KT 170V270 10SM SCT041 32/22 A3000 RMK AO2
KJDD 151735Z AUTO 22006KT 10SM SCT037 32/22 A3000 RMK AO2
KJDD 151715Z AUTO 20010G17KT 10SM SCT035 31/22 A3000 RMK AO2
KJDD 151655Z AUTO 23009G15KT 200V260 10SM SCT033 31/22 A3000 RMK AO2
KJDD 151635Z AUTO 23012KT 10SM SCT031 31/22 A3001 RMK AO2
KJDD 151615Z AUTO 23010G16KT 200V260 10SM SCT029 31/22 A3001 RMK AO2
KJDD 151555Z AUTO 21007G18KT 160V240 10SM SCT027 30/23 A3001 RMK AO2
KJDD 151535Z AUTO 21008KT 10SM SCT027 29/22 A3000 RMK AO2
KJDD 151515Z AUTO 20009KT 10SM BKN023 BKN030 29/23 A3000 RMK AO2
KJDD 151455Z AUTO 20010KT 10SM SCT021 SCT028 28/23 A3000 RMK AO2
KJDD 151435Z AUTO 20006KT 10SM SCT017 28/23 A3001 RMK AO2 LTG DSNT N
KJDD 151415Z AUTO 20009G14KT 10SM SCT015 SCT020 27/23 A3000 RMK AO2
KJDD 151355Z AUTO 20007KT 150V220 10SM SCT015 SCT020 26/23 A3001 RMK AO2 LTG DSNT N
KJDD 151335Z AUTO 20010KT 10SM SCT013 26/23 A3000 RMK AO2
KJDD 151315Z AUTO 19007KT 120V210 10SM CLR 26/23 A2999 RMK AO2
KJDD 151255Z AUTO 19007KT 10SM BKN015 26/23 A3000 RMK AO2
KJDD 151235Z AUTO 12005KT 10SM BKN017 25/23 A3000 RMK AO2
KJDD 151215Z AUTO 16005KT 10SM SCT017 25/23 A3000 RMK AO2
KJDD 151155Z AUTO 17005KT 10SM CLR 25/23 A2999 RMK AO2
KJDD 151135Z AUTO 15007KT 110V190 10SM CLR 25/23 A2997 RMK AO2
KJDD 151115Z AUTO 17007KT 110V210 10SM CLR 25/22 A2996 RMK AO2 LTG DSNT N
KJDD 151055Z AUTO 17008KT 110V190 10SM CLR 25/22 A2995 RMK AO2
KJDD 151035Z AUTO 16007KT 120V200 10SM CLR 25/22 A2996 RMK AO2
KJDD 151015Z AUTO 13006KT 10SM CLR 26/22 A2996 RMK AO2
KJDD 150955Z AUTO 15006KT 10SM CLR 26/22 A2996 RMK AO2
KJDD 150935Z AUTO 16006KT 10SM CLR 26/22 A2996 RMK AO2 LTG DSNT N
KJDD 150915Z AUTO 18007KT 10SM CLR 26/22 A2996 RMK AO2
KJDD 150855Z AUTO 15007KT 110V190 10SM CLR 26/22 A2995 RMK AO2
KJDD 150835Z AUTO 19005KT 10SM CLR 27/22 A2997 RMK AO2
KJDD 150815Z AUTO 15005KT 10SM CLR 27/22 A2997 RMK AO2
KJDD 150755Z AUTO 18006KT 10SM CLR 27/22 A2997 RMK AO2
KJDD 150735Z AUTO 18006KT 10SM CLR 27/22 A2996 RMK AO2
KJDD 150715Z AUTO 17008KT 10SM CLR 28/22 A2996 RMK AO2
KJDD 150655Z AUTO 17007KT 10SM CLR 28/22 A2995 RMK AO2
KJDD 150635Z AUTO 17009KT 10SM CLR 28/22 A2994 RMK AO2
KJDD 150615Z AUTO 17010G14KT 10SM CLR 28/21 A2994 RMK AO2
KJDD 150555Z AUTO 18007KT 10SM CLR 28/21 A2995 RMK AO2
KJDD 150535Z AUTO 17005KT 10SM CLR 29/21 A2995 RMK AO2
KJDD 150515Z AUTO 16006KT 10SM CLR 29/21 A2995 RMK AO2
KJDD 150455Z AUTO 16005KT 10SM CLR 29/21 A2995 RMK AO2 LTG DSNT N
KJDD 150435Z AUTO 17007KT 130V190 10SM CLR 29/21 A2995 RMK AO2
KJDD 150415Z AUTO 14005KT 10SM CLR 29/21 A2995 RMK AO2
KJDD 150355Z AUTO 14004KT 10SM CLR 29/21 A2994 RMK AO2 P0001
KJDD 150335Z AUTO 14004KT 10SM CLR 28/21 A2994 RMK AO2 P0001
KJDD 150315Z AUTO 11007KT 080V150 10SM CLR 28/21 A2993 RMK AO2 P0001
KJDD 150255Z AUTO 12006KT 10SM CLR 28/21 A2992 RMK AO2
KJDD 150235Z AUTO 13005KT 10SM CLR 29/20 A2991 RMK AO2
KJDD 150215Z AUTO 15005KT 10SM CLR 28/20 A2991 RMK AO2
KJDD 150155Z AUTO 15004KT 10SM CLR 28/20 A2990 RMK AO2
KJDD 150135Z AUTO 15004KT 10SM CLR 29/20 A2990 RMK AO2
KJDD 150115Z AUTO 16004KT 10SM CLR 30/20 A2989 RMK AO2
KJDD 150055Z AUTO 16003KT 10SM CLR 30/21 A2989 RMK AO2
KJDD 150035Z AUTO 16003KT 10SM CLR 31/21 A2989 RMK AO2
KJDD 150015Z AUTO 14004KT 10SM CLR 31/24 A2990 RMK AO2
KJDD 142355Z AUTO 09004KT 10SM CLR 30/24 A2991 RMK AO2
KJDD 142335Z AUTO 00000KT 10SM CLR 30/24 A2993 RMK AO2
KJDD 142315Z AUTO 00000KT 10SM CLR 31/23 A2993 RMK AO2
KJDD 142255Z AUTO 12003KT 10SM CLR 31/22 A2994 RMK AO2
KJDD 142235Z AUTO 00000KT 10SM CLR 31/22 A2994 RMK AO2
KJDD 142215Z AUTO 00000KT 10SM CLR 31/22 A2995 RMK AO2
KJDD 142155Z AUTO 14003KT 10SM CLR 31/21 A2996 RMK AO2
KJDD 142135Z AUTO 14003KT 10SM CLR 31/21 A2996 RMK AO2
KJDD 142115Z AUTO 17005KT 10SM SCT055 32/20 A2996 RMK AO2
KJDD 142055Z AUTO 18004KT 10SM BKN050 BKN065 32/21 A2997 RMK AO2 P0001
KJDD 142035Z AUTO 00000KT 10SM SCT050 SCT065 32/21 A2998 RMK AO2
KJDD 142015Z AUTO 17005KT 10SM SCT050 32/21 A2998 RMK AO2
KJDD 141955Z AUTO 20007KT 10SM SCT050 32/20 A2999 RMK AO2
KJDD 141935Z AUTO 20007KT 150V260 10SM SCT050 SCT060 32/20 A2999 RMK AO2
KJDD 141915Z AUTO 18006KT 10SM SCT050 BKN060 32/21 A2999 RMK AO2 LTG DSNT NW
KJDD 141855Z AUTO 23005KT 10SM SCT047 32/21 A2999 RMK AO2
KJDD 141835Z AUTO 20007KT 10SM SCT043 SCT050 31/21 A3000 RMK AO2 LTG DSNT NW
KJDD 141815Z AUTO 17006KT 10SM SCT041 31/21 A3001 RMK AO2 LTG DSNT NW
KJDD 141755Z AUTO 00000KT 10SM SCT039 30/21 A3001 RMK AO2 LTG DSNT NW
KJDD 141735Z AUTO 20006KT 10SM CLR 30/21 A3002 RMK AO2
KJDD 141715Z AUTO 17008KT 10SM SCT037 30/21 A3002 RMK AO2